createdAt,value
2018-02-12T00:00:37.237Z,999.05
2018-02-12T00:01:37.158Z,999.07
2018-02-12T00:02:37.231Z,999.09
2018-02-12T00:03:37.148Z,999.07
2018-02-12T00:04:37.252Z,999.12
2018-02-12T00:05:37.153Z,999.12
2018-02-12T00:06:37.259Z,999.12
2018-02-12T00:07:37.166Z,999.14
2018-02-12T00:08:41.782Z,999.16
2018-02-12T00:09:37.155Z,999.14
2018-02-12T00:10:37.191Z,999.14
2018-02-12T00:11:37.165Z,999.16
2018-02-12T00:12:37.197Z,999.21
2018-02-12T00:13:37.173Z,999.23
2018-02-12T00:14:37.168Z,999.26
2018-02-12T00:15:37.180Z,999.28
2018-02-12T00:16:37.236Z,999.22
2018-02-12T00:17:37.188Z,999.28
2018-02-12T00:18:38.262Z,999.29
2018-02-12T00:19:37.174Z,999.39
2018-02-12T00:20:37.256Z,999.36
2018-02-12T00:21:37.173Z,999.44
2018-02-12T00:22:37.268Z,999.40
2018-02-12T00:23:37.183Z,999.41
2018-02-12T00:24:37.279Z,999.49
2018-02-12T00:25:37.192Z,999.44
2018-02-12T00:26:37.304Z,999.44
2018-02-12T00:27:37.177Z,999.45
2018-02-12T00:28:37.218Z,999.47
2018-02-12T00:29:37.179Z,999.43
2018-02-12T00:30:37.218Z,999.55
2018-02-12T00:31:37.183Z,999.45
2018-02-12T00:32:37.237Z,999.48
2018-02-12T00:33:37.200Z,999.51
2018-02-12T00:34:37.245Z,999.50
2018-02-12T00:35:37.191Z,999.46
2018-02-12T00:36:37.263Z,999.46
2018-02-12T00:37:37.198Z,999.46
2018-02-12T00:38:37.278Z,999.50
2018-02-12T00:39:37.207Z,999.49
2018-02-12T00:40:37.296Z,999.54
2018-02-12T00:41:37.197Z,999.47
2018-02-12T00:42:37.301Z,999.47
2018-02-12T00:43:37.211Z,999.55
2018-02-12T00:44:37.310Z,999.54
2018-02-12T00:45:37.204Z,999.60
2018-02-12T00:46:37.220Z,999.62
2018-02-12T00:47:37.209Z,999.55
2018-02-12T00:48:37.244Z,999.61
2018-02-12T00:49:37.208Z,999.59
2018-02-12T00:50:37.256Z,999.62
2018-02-12T00:51:37.218Z,999.63
2018-02-12T00:52:37.267Z,999.66
2018-02-12T00:53:37.219Z,999.69
2018-02-12T00:54:37.281Z,999.65
2018-02-12T00:55:37.220Z,999.66
2018-02-12T00:56:37.295Z,999.59
2018-02-12T00:57:37.225Z,999.65
2018-02-12T00:58:37.306Z,999.66
2018-02-12T00:59:37.223Z,999.70
2018-02-12T01:00:37.324Z,999.64
2018-02-12T01:01:37.224Z,999.70
2018-02-12T01:02:37.338Z,999.66
2018-02-12T01:03:37.231Z,999.70
2018-02-12T01:04:38.270Z,999.70
2018-02-12T01:05:37.231Z,999.75
2018-02-12T01:06:37.263Z,999.77
2018-02-12T01:07:37.234Z,999.82
2018-02-12T01:08:37.270Z,999.82
2018-02-12T01:09:37.230Z,999.79
2018-02-12T01:10:37.287Z,999.80
2018-02-12T01:11:37.244Z,999.87
2018-02-12T01:12:39.347Z,999.89
2018-02-12T01:13:37.255Z,999.81
2018-02-12T01:14:37.317Z,999.78
2018-02-12T01:15:37.246Z,999.78
2018-02-12T01:16:37.328Z,999.76
2018-02-12T01:17:37.248Z,999.81
2018-02-12T01:18:37.345Z,999.79
2018-02-12T01:19:37.255Z,999.78
2018-02-12T01:20:37.367Z,999.87
2018-02-12T01:21:37.249Z,999.89
2018-02-12T01:22:37.274Z,999.89
2018-02-12T01:23:37.246Z,999.85
2018-02-12T01:24:39.332Z,999.86
2018-02-12T01:25:37.256Z,999.82
2018-02-12T01:26:37.291Z,999.86
2018-02-12T01:27:37.253Z,999.88
2018-02-12T01:28:38.341Z,999.86
2018-02-12T01:29:37.255Z,999.91
2018-02-12T01:30:37.322Z,999.94
2018-02-12T01:31:37.263Z,999.92
2018-02-12T01:32:37.329Z,999.90
2018-02-12T01:33:37.278Z,999.85
2018-02-12T01:34:37.349Z,999.96
2018-02-12T01:35:37.274Z,999.94
2018-02-12T01:36:37.359Z,999.97
2018-02-12T01:37:37.265Z,1000.00
2018-02-12T01:38:38.297Z,999.98
2018-02-12T01:39:37.271Z,999.97
2018-02-12T01:40:37.286Z,1000.02
2018-02-12T01:41:37.292Z,1000.01
2018-02-12T01:42:37.298Z,999.99
2018-02-12T01:43:37.278Z,1000.05
2018-02-12T01:44:37.313Z,1000.03
2018-02-12T01:45:37.274Z,1000.04
2018-02-12T01:46:38.353Z,1000.08
2018-02-12T01:47:37.293Z,1000.06
2018-02-12T01:48:37.341Z,1000.12
2018-02-12T01:49:37.279Z,1000.13
2018-02-12T01:50:37.359Z,1000.10
2018-02-12T01:51:37.301Z,1000.14
2018-02-12T01:52:37.370Z,1000.13
2018-02-12T01:53:37.294Z,1000.14
2018-02-12T01:54:37.385Z,1000.14
2018-02-12T01:55:37.296Z,1000.18
2018-02-12T01:56:37.395Z,1000.20
2018-02-12T01:57:37.307Z,1000.26
2018-02-12T01:58:37.428Z,1000.21
2018-02-12T01:59:37.291Z,1000.25
2018-02-12T02:00:37.322Z,1000.27
2018-02-12T02:01:37.301Z,1000.25
2018-02-12T02:02:38.359Z,1000.29
2018-02-12T02:03:37.299Z,1000.30
2018-02-12T02:04:37.348Z,1000.29
2018-02-12T02:05:37.305Z,1000.33
2018-02-12T02:06:37.363Z,1000.36
2018-02-12T02:07:37.305Z,1000.32
2018-02-12T02:08:38.416Z,1000.28
2018-02-12T02:09:37.310Z,1000.31
2018-02-12T02:10:37.393Z,1000.31
2018-02-12T02:11:37.307Z,1000.35
2018-02-12T02:12:37.401Z,1000.36
2018-02-12T02:13:37.307Z,1000.36
2018-02-12T02:14:37.413Z,1000.32
2018-02-12T02:15:37.319Z,1000.33
2018-02-12T02:16:37.327Z,1000.35
2018-02-12T02:17:37.321Z,1000.34
2018-02-12T02:18:37.341Z,1000.36
2018-02-12T02:19:37.318Z,1000.39
2018-02-12T02:20:37.352Z,1000.34
2018-02-12T02:21:37.313Z,1000.35
2018-02-12T02:22:37.368Z,1000.38
2018-02-12T02:23:37.326Z,1000.32
2018-02-12T02:24:37.390Z,1000.35
2018-02-12T02:25:37.323Z,1000.38
2018-02-12T02:26:38.424Z,1000.38
2018-02-12T02:27:37.323Z,1000.37
2018-02-12T02:28:37.418Z,1000.40
2018-02-12T02:29:37.326Z,1000.45
2018-02-12T02:30:37.424Z,1000.45
2018-02-12T02:31:37.332Z,1000.46
2018-02-12T02:32:38.367Z,1000.47
2018-02-12T02:33:37.335Z,1000.41
2018-02-12T02:34:37.449Z,1000.40
2018-02-12T02:35:37.336Z,1000.44
2018-02-12T02:36:37.359Z,1000.44
2018-02-12T02:37:37.340Z,1000.45
2018-02-12T02:38:37.377Z,1000.44
2018-02-12T02:39:37.350Z,1000.51
2018-02-12T02:40:38.420Z,1000.42
2018-02-12T02:41:37.348Z,1000.46
2018-02-12T02:42:37.424Z,1000.43
2018-02-12T02:43:37.343Z,1000.43
2018-02-12T02:44:38.382Z,1000.46
2018-02-12T02:45:37.343Z,1000.39
2018-02-12T02:46:37.442Z,1000.45
2018-02-12T02:47:37.354Z,1000.41
2018-02-12T02:48:37.444Z,1000.44
2018-02-12T02:49:37.355Z,1000.47
2018-02-12T02:50:37.467Z,1000.44
2018-02-12T02:51:37.356Z,1000.43
2018-02-12T02:52:37.377Z,1000.50
2018-02-12T02:53:37.351Z,1000.44
2018-02-12T02:54:37.389Z,1000.49
2018-02-12T02:55:37.379Z,1000.45
2018-02-12T02:56:37.399Z,1000.49
2018-02-12T02:57:37.361Z,1000.51
2018-02-12T02:58:38.451Z,1000.54
2018-02-12T02:59:37.360Z,1000.50
2018-02-12T03:00:37.432Z,1000.57
2018-02-12T03:01:37.366Z,1000.51
2018-02-12T03:02:37.445Z,1000.54
2018-02-12T03:03:37.371Z,1000.55
2018-02-12T03:04:37.478Z,1000.54
2018-02-12T03:05:37.368Z,1000.60
2018-02-12T03:06:37.466Z,1000.60
2018-02-12T03:07:37.368Z,1000.63
2018-02-12T03:08:37.505Z,1000.67
2018-02-12T03:09:37.379Z,1000.63
2018-02-12T03:10:37.404Z,1000.70
2018-02-12T03:11:37.372Z,1000.64
2018-02-12T03:12:37.407Z,1000.66
2018-02-12T03:13:37.374Z,1000.73
2018-02-12T03:14:37.427Z,1000.62
2018-02-12T03:15:37.379Z,1000.78
2018-02-12T03:16:37.487Z,1000.71
2018-02-12T03:17:37.396Z,1000.79
2018-02-12T03:18:37.500Z,1000.78
2018-02-12T03:19:37.388Z,1000.81
2018-02-12T03:20:39.447Z,1000.79
2018-02-12T03:21:37.436Z,1000.82
2018-02-12T03:22:37.415Z,1000.85
2018-02-12T03:23:37.388Z,1000.88
2018-02-12T03:24:37.440Z,1000.83
2018-02-12T03:25:37.403Z,1000.89
2018-02-12T03:26:38.491Z,1000.90
2018-02-12T03:27:37.393Z,1000.95
2018-02-12T03:28:37.454Z,1000.93
2018-02-12T03:29:37.394Z,1000.93
2018-02-12T03:30:38.496Z,1000.93
2018-02-12T03:31:37.402Z,1000.94
2018-02-12T03:32:38.522Z,1000.93
2018-02-12T03:33:37.399Z,1000.96
2018-02-12T03:34:37.398Z,1000.92
2018-02-12T03:35:37.517Z,1000.99
2018-02-12T03:36:37.408Z,1000.94
2018-02-12T03:37:37.421Z,1000.90
2018-02-12T03:38:37.401Z,1000.92
2018-02-12T03:39:37.462Z,1000.92
2018-02-12T03:40:37.406Z,1000.95
2018-02-12T03:41:37.464Z,1000.93
2018-02-12T03:42:37.419Z,1000.91
2018-02-12T03:43:37.474Z,1000.93
2018-02-12T03:44:37.410Z,1001.03
2018-02-12T03:45:38.509Z,1000.97
2018-02-12T03:46:37.416Z,1000.93
2018-02-12T03:47:37.496Z,1000.95
2018-02-12T03:48:37.418Z,1000.94
2018-02-12T03:49:37.505Z,1000.92
2018-02-12T03:50:37.420Z,1000.90
2018-02-12T03:51:37.537Z,1000.96
2018-02-12T03:52:37.420Z,1000.97
2018-02-12T03:53:37.541Z,1001.04
2018-02-12T03:54:37.419Z,1001.08
2018-02-12T03:55:37.444Z,1001.02
2018-02-12T03:56:37.422Z,1001.01
2018-02-12T03:57:38.488Z,1001.02
2018-02-12T03:58:37.427Z,1001.09
2018-02-12T03:59:37.479Z,1001.09
2018-02-12T04:00:37.440Z,1001.15
2018-02-12T04:01:37.486Z,1001.14
2018-02-12T04:02:37.440Z,1001.22
2018-02-12T04:03:37.498Z,1001.26
2018-02-12T04:04:37.434Z,1001.19
2018-02-12T04:05:37.518Z,1001.22
2018-02-12T04:06:37.440Z,1001.26
2018-02-12T04:07:37.538Z,1001.27
2018-02-12T04:08:37.438Z,1001.31
2018-02-12T04:09:37.538Z,1001.27
2018-02-12T04:10:37.442Z,1001.25
2018-02-12T04:11:39.510Z,1001.25
2018-02-12T04:12:37.437Z,1001.28
2018-02-12T04:13:37.466Z,1001.30
2018-02-12T04:14:37.437Z,1001.30
2018-02-12T04:15:44.336Z,1001.26
2018-02-12T04:16:37.448Z,1001.26
2018-02-12T04:17:38.525Z,1001.27
2018-02-12T04:18:37.443Z,1001.31
2018-02-12T04:19:39.546Z,1001.31
2018-02-12T04:20:37.456Z,1001.30
2018-02-12T04:21:38.542Z,1001.31
2018-02-12T04:22:37.452Z,1001.29
2018-02-12T04:23:37.529Z,1001.27
2018-02-12T04:24:37.460Z,1001.28
2018-02-12T04:25:37.546Z,1001.30
2018-02-12T04:26:37.463Z,1001.31
2018-02-12T04:27:38.479Z,1001.28
2018-02-12T04:28:37.459Z,1001.30
2018-02-12T04:29:37.572Z,1001.36
2018-02-12T04:30:37.453Z,1001.35
2018-02-12T04:31:53.265Z,1001.39
2018-02-12T04:32:37.457Z,1001.35
2018-02-12T04:33:42.304Z,1001.38
2018-02-12T04:34:37.457Z,1001.37
2018-02-12T04:35:37.510Z,1001.46
2018-02-12T04:36:37.511Z,1001.52
2018-02-12T04:37:37.520Z,1001.40
2018-02-12T04:38:37.468Z,1001.45
2018-02-12T04:39:37.548Z,1001.51
2018-02-12T04:40:37.471Z,1001.47
2018-02-12T04:41:37.550Z,1001.55
2018-02-12T04:42:37.466Z,1001.46
2018-02-12T04:43:48.316Z,1001.55
2018-02-12T04:44:37.477Z,1001.49
2018-02-12T04:45:37.577Z,1001.59
2018-02-12T04:46:37.477Z,1001.60
2018-02-12T04:47:37.591Z,1001.64
2018-02-12T04:48:37.483Z,1001.67
2018-02-12T04:49:38.523Z,1001.61
2018-02-12T04:50:37.477Z,1001.64
2018-02-12T04:51:38.542Z,1001.63
2018-02-12T04:52:37.494Z,1001.60
2018-02-12T04:53:38.559Z,1001.59
2018-02-12T04:54:37.485Z,1001.61
2018-02-12T04:55:49.320Z,1001.61
2018-02-12T04:56:37.484Z,1001.69
2018-02-12T04:57:38.578Z,1001.67
2018-02-12T04:58:37.484Z,1001.69
2018-02-12T04:59:37.568Z,1001.71
2018-02-12T05:00:37.485Z,1001.71
2018-02-12T05:01:39.529Z,1001.72
2018-02-12T05:02:37.497Z,1001.72
2018-02-12T05:03:37.598Z,1001.75
2018-02-12T05:04:37.487Z,1001.72
2018-02-12T05:05:38.532Z,1001.75
2018-02-12T05:06:37.488Z,1001.81
2018-02-12T05:07:54.321Z,1001.82
2018-02-12T05:08:37.498Z,1001.84
2018-02-12T05:09:37.490Z,1001.87
2018-02-12T05:10:37.542Z,1001.91
2018-02-12T05:11:37.496Z,1001.91
2018-02-12T05:12:38.581Z,1001.93
2018-02-12T05:13:37.496Z,1001.94
2018-02-12T05:14:38.598Z,1001.92
2018-02-12T05:15:37.510Z,1001.97
2018-02-12T05:16:37.584Z,1001.95
2018-02-12T05:17:37.505Z,1001.94
2018-02-12T05:18:38.516Z,1002.00
2018-02-12T05:19:37.508Z,1001.97
2018-02-12T05:20:37.606Z,1001.97
2018-02-12T05:21:37.505Z,1002.05
2018-02-12T05:22:42.333Z,1002.12
2018-02-12T05:23:37.503Z,1002.03
2018-02-12T05:24:37.534Z,1002.02
2018-02-12T05:25:37.516Z,1002.07
2018-02-12T05:26:37.546Z,1002.04
2018-02-12T05:27:37.516Z,1002.07
2018-02-12T05:28:37.566Z,1002.08
2018-02-12T05:29:37.515Z,1002.10
2018-02-12T05:30:39.627Z,1002.10
2018-02-12T05:31:37.523Z,1002.05
2018-02-12T05:32:37.591Z,1002.07
2018-02-12T05:33:37.524Z,1002.11
2018-02-12T05:34:37.603Z,1002.09
2018-02-12T05:35:37.520Z,1002.08
2018-02-12T05:36:37.614Z,1002.11
2018-02-12T05:37:37.535Z,1002.10
2018-02-12T05:38:38.553Z,1002.10
2018-02-12T05:39:37.526Z,1002.11
2018-02-12T05:40:37.542Z,1002.13
2018-02-12T05:41:37.522Z,1002.10
2018-02-12T05:42:38.578Z,1002.15
2018-02-12T05:43:37.523Z,1002.13
2018-02-12T05:44:39.637Z,1002.20
2018-02-12T05:45:37.531Z,1002.21
2018-02-12T05:46:38.620Z,1002.16
2018-02-12T05:47:37.531Z,1002.23
2018-02-12T05:48:37.593Z,1002.16
2018-02-12T05:49:37.540Z,1002.19
2018-02-12T05:50:37.598Z,1002.28
2018-02-12T05:51:37.541Z,1002.27
2018-02-12T05:52:37.614Z,1002.25
2018-02-12T05:53:37.545Z,1002.33
2018-02-12T05:54:37.640Z,1002.39
2018-02-12T05:55:37.537Z,1002.40
2018-02-12T05:56:37.641Z,1002.37
2018-02-12T05:57:37.545Z,1002.37
2018-02-12T05:58:37.655Z,1002.39
2018-02-12T05:59:37.543Z,1002.45
2018-02-12T06:00:38.587Z,1002.41
2018-02-12T06:01:37.540Z,1002.47
2018-02-12T06:02:37.586Z,1002.46
2018-02-12T06:03:37.584Z,1002.52
2018-02-12T06:04:37.548Z,1002.49
2018-02-12T06:05:37.549Z,1002.49
2018-02-12T06:06:37.546Z,1002.59
2018-02-12T06:07:37.567Z,1002.55
2018-02-12T06:08:37.565Z,1002.59
2018-02-12T06:09:37.556Z,1002.55
2018-02-12T06:10:37.601Z,1002.62
2018-02-12T06:11:37.574Z,1002.62
2018-02-12T06:12:37.612Z,1002.56
2018-02-12T06:13:37.584Z,1002.62
2018-02-12T06:14:37.628Z,1002.66
2018-02-12T06:15:37.561Z,1002.69
2018-02-12T06:16:37.638Z,1002.63
2018-02-12T06:17:37.554Z,1002.70
2018-02-12T06:18:37.596Z,1002.72
2018-02-12T06:19:37.555Z,1002.76
2018-02-12T06:20:37.612Z,1002.76
2018-02-12T06:21:37.560Z,1002.78
2018-02-12T06:22:37.616Z,1002.79
2018-02-12T06:23:37.578Z,1002.85
2018-02-12T06:24:37.568Z,1002.84
2018-02-12T06:25:37.611Z,1002.91
2018-02-12T06:26:37.619Z,1002.86
2018-02-12T06:27:37.578Z,1002.92
2018-02-12T06:28:37.636Z,1002.97
2018-02-12T06:29:37.574Z,1002.95
2018-02-12T06:30:37.644Z,1002.95
2018-02-12T06:31:37.584Z,1002.96
2018-02-12T06:32:37.658Z,1002.95
2018-02-12T06:33:37.579Z,1003.01
2018-02-12T06:34:37.684Z,1002.98
2018-02-12T06:35:37.576Z,1003.02
2018-02-12T06:36:37.683Z,1003.06
2018-02-12T06:37:37.573Z,1003.05
2018-02-12T06:38:37.599Z,1003.09
2018-02-12T06:39:37.576Z,1003.09
2018-02-12T06:40:37.590Z,1003.10
2018-02-12T06:41:37.576Z,1003.07
2018-02-12T06:42:38.630Z,1003.15
2018-02-12T06:43:37.575Z,1003.13
2018-02-12T06:44:37.623Z,1003.15
2018-02-12T06:45:37.581Z,1003.19
2018-02-12T06:46:37.634Z,1003.20
2018-02-12T06:47:37.579Z,1003.19
2018-02-12T06:48:37.649Z,1003.25
2018-02-12T06:49:37.616Z,1003.26
2018-02-12T06:50:37.670Z,1003.30
2018-02-12T06:51:37.595Z,1003.33
2018-02-12T06:52:37.681Z,1003.36
2018-02-12T06:53:37.591Z,1003.35
2018-02-12T06:54:37.686Z,1003.42
2018-02-12T06:55:37.596Z,1003.39
2018-02-12T06:56:37.716Z,1003.41
2018-02-12T06:57:37.589Z,1003.47
2018-02-12T06:58:37.611Z,1003.61
2018-02-12T06:59:37.593Z,1003.60
2018-02-12T07:00:37.728Z,1003.55
2018-02-12T07:01:37.596Z,1003.53
2018-02-12T07:02:37.631Z,1003.54
2018-02-12T07:03:37.605Z,1003.60
2018-02-12T07:04:38.686Z,1003.63
2018-02-12T07:05:37.594Z,1003.55
2018-02-12T07:06:37.658Z,1003.64
2018-02-12T07:07:37.643Z,1003.61
2018-02-12T07:08:42.288Z,1003.62
2018-02-12T07:09:37.602Z,1003.64
2018-02-12T07:10:38.710Z,1003.66
2018-02-12T07:11:37.603Z,1003.71
2018-02-12T07:12:37.614Z,1003.68
2018-02-12T07:13:48.260Z,1003.77
2018-02-12T07:14:37.603Z,1003.77
2018-02-12T07:15:38.666Z,1003.78
2018-02-12T07:16:37.609Z,1003.77
2018-02-12T07:17:38.667Z,1003.77
2018-02-12T07:18:37.608Z,1003.84
2018-02-12T07:19:37.659Z,1003.78
2018-02-12T07:20:37.615Z,1003.85
2018-02-12T07:21:42.285Z,1003.82
2018-02-12T07:22:37.612Z,1003.82
2018-02-12T07:23:37.693Z,1003.84
2018-02-12T07:24:37.617Z,1003.89
2018-02-12T07:25:38.720Z,1003.87
2018-02-12T07:26:37.613Z,1003.84
2018-02-12T07:27:38.646Z,1003.85
2018-02-12T07:28:37.616Z,1003.84
2018-02-12T07:29:37.725Z,1003.86
2018-02-12T07:30:37.625Z,1003.85
2018-02-12T07:31:37.635Z,1003.88
2018-02-12T07:32:37.622Z,1003.89
2018-02-12T07:33:37.671Z,1003.92
2018-02-12T07:34:37.624Z,1003.94
2018-02-12T07:35:37.717Z,1003.93
2018-02-12T07:36:37.629Z,1003.96
2018-02-12T07:37:37.677Z,1003.95
2018-02-12T07:38:37.630Z,1003.96
2018-02-12T07:39:37.703Z,1003.95
2018-02-12T07:40:37.638Z,1003.96
2018-02-12T07:41:37.701Z,1004.02
2018-02-12T07:42:37.635Z,1003.98
2018-02-12T07:43:38.746Z,1004.02
2018-02-12T07:44:37.639Z,1004.01
2018-02-12T07:45:38.659Z,1003.99
2018-02-12T07:46:37.634Z,1004.03
2018-02-12T07:47:37.638Z,1003.96
2018-02-12T07:48:37.651Z,1004.03
2018-02-12T07:49:38.203Z,1004.04
2018-02-12T07:50:37.641Z,1004.03
2018-02-12T07:51:37.635Z,1004.05
2018-02-12T07:52:37.678Z,1004.08
2018-02-12T07:53:37.630Z,1004.14
2018-02-12T07:54:37.640Z,1004.14
2018-02-12T07:55:37.671Z,1004.15
2018-02-12T07:56:37.667Z,1004.18
2018-02-12T07:57:37.642Z,1004.21
2018-02-12T07:58:37.643Z,1004.16
2018-02-12T07:59:37.647Z,1004.23
2018-02-12T08:00:37.661Z,1004.27
2018-02-12T08:01:37.646Z,1004.24
2018-02-12T08:02:37.718Z,1004.30
2018-02-12T08:03:37.645Z,1004.25
2018-02-12T08:04:37.813Z,1004.28
2018-02-12T08:05:37.669Z,1004.30
2018-02-12T08:06:37.807Z,1004.34
2018-02-12T08:07:37.658Z,1004.36
2018-02-12T08:08:37.816Z,1004.40
2018-02-12T08:09:37.652Z,1004.40
2018-02-12T08:10:37.822Z,1004.46
2018-02-12T08:11:37.659Z,1004.44
2018-02-12T08:12:37.741Z,1004.47
2018-02-12T08:13:37.657Z,1004.43
2018-02-12T08:14:37.771Z,1004.50
2018-02-12T08:15:37.657Z,1004.52
2018-02-12T08:16:43.359Z,1004.56
2018-02-12T08:17:37.662Z,1004.59
2018-02-12T08:18:37.742Z,1004.60
2018-02-12T08:19:37.706Z,1004.60
2018-02-12T08:20:37.754Z,1004.55
2018-02-12T08:21:37.671Z,1004.58
2018-02-12T08:22:38.818Z,1004.65
2018-02-12T08:23:37.673Z,1004.65
2018-02-12T08:24:37.787Z,1004.67
2018-02-12T08:25:37.660Z,1004.65
2018-02-12T08:26:37.795Z,1004.71
2018-02-12T08:27:37.724Z,1004.67
2018-02-12T08:28:38.730Z,1004.68
2018-02-12T08:29:37.670Z,1004.68
2018-02-12T08:30:37.835Z,1004.68
2018-02-12T08:31:37.678Z,1004.73
2018-02-12T08:32:37.732Z,1004.71
2018-02-12T08:33:37.673Z,1004.74
2018-02-12T08:34:37.673Z,1004.73
2018-02-12T08:35:37.675Z,1004.78
2018-02-12T08:36:37.757Z,1004.78
2018-02-12T08:37:37.696Z,1004.78
2018-02-12T08:38:38.789Z,1004.82
2018-02-12T08:39:37.695Z,1004.76
2018-02-12T08:40:37.791Z,1004.86
2018-02-12T08:41:37.674Z,1004.83
2018-02-12T08:42:37.816Z,1004.85
2018-02-12T08:43:37.680Z,1004.93
2018-02-12T08:44:37.826Z,1004.98
2018-02-12T08:45:37.681Z,1005.02
2018-02-12T08:46:37.831Z,1005.01
2018-02-12T08:47:37.685Z,1004.99
2018-02-12T08:48:37.849Z,1005.05
2018-02-12T08:49:37.694Z,1005.00
2018-02-12T08:50:37.771Z,1005.03
2018-02-12T08:51:37.688Z,1005.03
2018-02-12T08:52:37.758Z,1005.05
2018-02-12T08:53:37.686Z,1005.07
2018-02-12T08:54:37.770Z,1005.10
2018-02-12T08:55:37.704Z,1005.12
2018-02-12T08:56:37.833Z,1005.15
2018-02-12T08:57:37.722Z,1005.18
2018-02-12T08:58:37.817Z,1005.13
2018-02-12T08:59:37.698Z,1005.16
2018-02-12T09:00:37.848Z,1005.19
2018-02-12T09:01:37.705Z,1005.20
2018-02-12T09:02:37.824Z,1005.23
2018-02-12T09:03:37.716Z,1005.24
2018-02-12T09:04:37.837Z,1005.22
2018-02-12T09:05:37.721Z,1005.24
2018-02-12T09:06:37.852Z,1005.20
2018-02-12T09:07:37.711Z,1005.26
2018-02-12T09:08:43.458Z,1005.25
2018-02-12T09:09:37.752Z,1005.30
2018-02-12T09:10:37.815Z,1005.28
2018-02-12T09:11:37.739Z,1005.32
2018-02-12T09:12:38.925Z,1005.31
2018-02-12T09:13:37.722Z,1005.33
2018-02-12T09:14:37.857Z,1005.30
2018-02-12T09:15:37.740Z,1005.32
2018-02-12T09:16:37.875Z,1005.33
2018-02-12T09:17:37.744Z,1005.35
2018-02-12T09:18:37.888Z,1005.40
2018-02-12T09:19:37.747Z,1005.40
2018-02-12T09:20:38.942Z,1005.35
2018-02-12T09:21:37.732Z,1005.38
2018-02-12T09:22:38.025Z,1005.41
2018-02-12T09:23:37.734Z,1005.47
2018-02-12T09:24:37.934Z,1005.40
2018-02-12T09:25:37.737Z,1005.44
2018-02-12T09:26:37.948Z,1005.50
2018-02-12T09:27:37.752Z,1005.50
2018-02-12T09:28:37.955Z,1005.48
2018-02-12T09:29:37.768Z,1005.45
2018-02-12T09:30:38.884Z,1005.46
2018-02-12T09:31:37.765Z,1005.48
2018-02-12T09:32:37.775Z,1005.54
2018-02-12T09:33:37.769Z,1005.57
2018-02-12T09:34:37.769Z,1005.56
2018-02-12T09:35:37.766Z,1005.53
2018-02-12T09:36:37.767Z,1005.57
2018-02-12T09:37:37.770Z,1005.61
2018-02-12T09:38:37.817Z,1005.57
2018-02-12T09:39:37.775Z,1005.58
2018-02-12T09:40:37.828Z,1005.59
2018-02-12T09:41:37.780Z,1005.64
2018-02-12T09:42:37.841Z,1005.55
2018-02-12T09:43:37.801Z,1005.57
2018-02-12T09:44:37.981Z,1005.62
2018-02-12T09:45:37.790Z,1005.59
2018-02-12T09:46:37.866Z,1005.60
2018-02-12T09:47:37.793Z,1005.63
2018-02-12T09:48:37.876Z,1005.65
2018-02-12T09:49:37.804Z,1005.67
2018-02-12T09:50:37.887Z,1005.65
2018-02-12T09:51:37.811Z,1005.63
2018-02-12T09:52:37.901Z,1005.66
2018-02-12T09:53:37.806Z,1005.68
2018-02-12T09:54:37.915Z,1005.71
2018-02-12T09:55:37.819Z,1005.73
2018-02-12T09:56:37.929Z,1005.72
2018-02-12T09:57:37.835Z,1005.71
2018-02-12T09:58:37.816Z,1005.77
2018-02-12T09:59:37.844Z,1005.71
2018-02-12T10:00:37.829Z,1005.77
2018-02-12T10:01:37.895Z,1005.81
2018-02-12T10:02:37.848Z,1005.77
2018-02-12T10:03:38.001Z,1005.79
2018-02-12T10:04:37.841Z,1005.82
2018-02-12T10:05:42.793Z,1005.90
2018-02-12T10:06:37.842Z,1005.87
2018-02-12T10:07:37.897Z,1005.88
2018-02-12T10:08:37.862Z,1005.87
2018-02-12T10:09:37.916Z,1005.82
2018-02-12T10:10:37.862Z,1005.85
2018-02-12T10:11:37.921Z,1005.92
2018-02-12T10:12:37.895Z,1005.95
2018-02-12T10:13:37.930Z,1005.92
2018-02-12T10:14:37.894Z,1006.02
2018-02-12T10:15:37.955Z,1006.08
2018-02-12T10:16:37.877Z,1005.97
2018-02-12T10:17:37.982Z,1006.00
2018-02-12T10:18:37.891Z,1006.01
2018-02-12T10:19:37.988Z,1006.02
2018-02-12T10:20:37.895Z,1006.09
2018-02-12T10:21:38.018Z,1006.18
2018-02-12T10:22:37.920Z,1006.00
2018-02-12T10:23:38.995Z,1006.11
2018-02-12T10:24:37.908Z,1006.11
2018-02-12T10:25:38.032Z,1006.14
2018-02-12T10:26:37.910Z,1006.18
2018-02-12T10:27:38.043Z,1006.18
2018-02-12T10:28:37.938Z,1006.20
2018-02-12T10:29:37.954Z,1006.24
2018-02-12T10:30:37.962Z,1006.26
2018-02-12T10:31:37.957Z,1006.25
2018-02-12T10:32:37.942Z,1006.33
2018-02-12T10:33:37.982Z,1006.31
2018-02-12T10:34:37.951Z,1006.26
2018-02-12T10:35:37.997Z,1006.36
2018-02-12T10:36:37.939Z,1006.36
2018-02-12T10:37:38.009Z,1006.38
2018-02-12T10:38:37.949Z,1006.35
2018-02-12T10:39:43.853Z,1006.35
2018-02-12T10:40:37.983Z,1006.38
2018-02-12T10:41:38.052Z,1006.37
2018-02-12T10:42:37.967Z,1006.35
2018-02-12T10:43:39.124Z,1006.37
2018-02-12T10:44:38.040Z,1006.43
2018-02-12T10:45:38.040Z,1006.40
2018-02-12T10:46:38.021Z,1006.40
2018-02-12T10:47:38.052Z,1006.41
2018-02-12T10:48:37.985Z,1006.40
2018-02-12T10:49:38.062Z,1006.46
2018-02-12T10:50:37.993Z,1006.46
2018-02-12T10:51:38.080Z,1006.52
2018-02-12T10:52:38.003Z,1006.50
2018-02-12T10:53:38.083Z,1006.51
2018-02-12T10:54:38.018Z,1006.47
2018-02-12T10:55:38.015Z,1006.51
2018-02-12T10:56:38.138Z,1006.49
2018-02-12T10:57:38.010Z,1006.54
2018-02-12T10:58:38.158Z,1006.55
2018-02-12T10:59:38.028Z,1006.57
2018-02-12T11:00:38.164Z,1006.55
2018-02-12T11:01:38.053Z,1006.60
2018-02-12T11:02:38.225Z,1006.57
2018-02-12T11:04:44.186Z,1006.50
2018-02-12T11:06:04.007Z,1006.55
2018-02-12T11:07:03.968Z,1006.60
2018-02-12T11:08:04.001Z,1006.62
2018-02-12T11:09:03.964Z,1006.64
2018-02-12T11:10:03.990Z,1006.58
2018-02-12T11:11:03.968Z,1006.67
2018-02-12T11:12:04.011Z,1006.65
2018-02-12T11:13:03.987Z,1006.60
2018-02-12T11:14:04.017Z,1006.62
2018-02-12T11:15:03.978Z,1006.55
2018-02-12T11:16:04.038Z,1006.68
2018-02-12T11:17:03.985Z,1006.68
2018-02-12T11:18:04.103Z,1006.69
2018-02-12T11:19:04.024Z,1006.60
2018-02-12T11:20:04.093Z,1006.67
2018-02-12T11:21:04.011Z,1006.59
2018-02-12T11:22:04.069Z,1006.62
2018-02-12T11:23:04.019Z,1006.62
2018-02-12T11:24:04.086Z,1006.66
2018-02-12T11:25:04.018Z,1006.64
2018-02-12T11:26:04.097Z,1006.60
2018-02-12T11:27:04.031Z,1006.72
2018-02-12T11:28:04.121Z,1006.70
2018-02-12T11:29:04.038Z,1006.68
2018-02-12T11:30:05.054Z,1006.75
2018-02-12T11:31:04.042Z,1006.69
2018-02-12T11:32:04.138Z,1006.68
2018-02-12T11:33:04.047Z,1006.69
2018-02-12T11:34:05.068Z,1006.70
2018-02-12T11:35:04.054Z,1006.66
2018-02-12T11:36:05.101Z,1006.66
2018-02-12T11:37:04.068Z,1006.70
2018-02-12T11:38:04.075Z,1006.69
2018-02-12T11:39:04.057Z,1006.72
2018-02-12T11:40:04.105Z,1006.75
2018-02-12T11:41:04.068Z,1006.74
2018-02-12T11:42:04.105Z,1006.75
2018-02-12T11:43:04.079Z,1006.77
2018-02-12T11:44:04.088Z,1006.77
2018-02-12T11:45:04.117Z,1006.80
2018-02-12T11:46:04.083Z,1006.82
2018-02-12T11:47:04.138Z,1006.88
2018-02-12T11:48:04.096Z,1006.87
2018-02-12T11:49:04.136Z,1006.84
2018-02-12T11:50:04.107Z,1006.84
2018-02-12T11:51:04.164Z,1006.87
2018-02-12T11:52:04.124Z,1006.87
2018-02-12T11:53:05.242Z,1006.90
2018-02-12T11:54:04.110Z,1006.85
2018-02-12T11:55:04.183Z,1006.91
2018-02-12T11:56:04.131Z,1006.88
2018-02-12T11:57:04.196Z,1006.86
2018-02-12T11:58:04.147Z,1006.93
2018-02-12T11:59:04.205Z,1006.92
2018-02-12T12:00:04.169Z,1006.95
2018-02-12T12:01:04.221Z,1006.98
2018-02-12T12:02:04.159Z,1006.91
2018-02-12T12:03:05.255Z,1006.99
2018-02-12T12:04:04.195Z,1007.04
2018-02-12T12:05:04.283Z,1007.01
2018-02-12T12:06:04.164Z,1007.01
2018-02-12T12:07:04.260Z,1007.00
2018-02-12T12:08:04.329Z,1007.06
2018-02-12T12:09:04.278Z,1006.97
2018-02-12T12:10:04.179Z,1006.94